Time;durP1;ratioP1;P1;durP2;ratioP2;P2;SDS_P1;SDS_P2;PMS_P1;PMS_P2;Temp;Humidity;BMP_temperature;BMP_pressure;BME280_temperature;BME280_humidity;BME280_pressure;Samples;Min_cycle;Max_cycle;Signal;HPM_P1;HPM_P2
2021/06/15 00:01:51;;;;;;;12.10;9.40;;;19.30;99.90;;;;;;5095106;28;20637;-71
2021/06/15 00:04:16;;;;;;;9.27;8.13;;;19.30;99.90;;;;;;5094845;28;20687;-70
2021/06/15 00:06:42;;;;;;;9.97;8.37;;;19.30;99.90;;;;;;5094717;28;20624;-70
2021/06/15 00:09:08;;;;;;;11.30;9.23;;;19.30;99.90;;;;;;5094720;28;20167;-70
2021/06/15 00:11:33;;;;;;;10.67;8.70;;;19.30;99.90;;;;;;5101744;28;20170;-70
2021/06/15 00:13:59;;;;;;;9.67;8.50;;;19.30;99.90;;;;;;5115060;28;20197;-71
2021/06/15 00:16:24;;;;;;;11.07;8.97;;;19.20;99.90;;;;;;5115077;28;20529;-71
2021/06/15 00:18:50;;;;;;;13.10;9.20;;;19.20;99.90;;;;;;5114951;28;20245;-70
2021/06/15 00:21:16;;;;;;;12.03;9.63;;;19.20;99.90;;;;;;5114773;28;20685;-70
2021/06/15 00:23:41;;;;;;;11.63;10.37;;;19.20;99.90;;;;;;5114891;28;20159;-71
2021/06/15 00:26:07;;;;;;;15.07;10.23;;;19.10;99.90;;;;;;5114805;28;20261;-71
2021/06/15 00:28:32;;;;;;;11.03;9.80;;;19.10;99.90;;;;;;5114011;28;20180;-70
2021/06/15 00:30:58;;;;;;;11.53;9.80;;;19.10;99.90;;;;;;5114827;28;20151;-71
2021/06/15 00:33:24;;;;;;;13.70;9.87;;;19.10;99.90;;;;;;5114640;28;20185;-70
2021/06/15 00:35:50;;;;;;;14.30;10.70;;;19.10;99.90;;;;;;5114591;28;20526;-70
2021/06/15 00:38:16;;;;;;;12.23;10.63;;;19.10;99.90;;;;;;5113728;28;20391;-70
2021/06/15 00:40:42;;;;;;;10.43;9.43;;;19.10;99.90;;;;;;5114460;28;20404;-70
2021/06/15 00:43:07;;;;;;;13.30;9.43;;;19.00;99.90;;;;;;5114642;28;20622;-70
2021/06/15 00:45:33;;;;;;;12.20;9.67;;;19.00;99.90;;;;;;5107154;28;20171;-70
2021/06/15 00:47:59;;;;;;;14.70;10.40;;;19.00;99.90;;;;;;5094259;28;20212;-70
2021/06/15 00:50:26;;;;;;;10.37;9.27;;;18.90;99.90;;;;;;5094035;28;20159;-71
2021/06/15 00:52:53;;;;;;;13.20;10.13;;;18.90;99.90;;;;;;5093794;28;20541;-70
2021/06/15 00:55:20;;;;;;;11.47;9.63;;;18.90;99.90;;;;;;5093824;28;20889;-70
2021/06/15 00:57:46;;;;;;;10.00;9.00;;;18.90;99.90;;;;;;5093853;28;20462;-71
2021/06/15 01:00:12;;;;;;;13.87;11.57;;;18.80;99.90;;;;;;5093699;28;20429;-71
2021/06/15 01:02:38;;;;;;;12.80;10.27;;;18.80;99.90;;;;;;5094371;28;20167;-70
2021/06/15 01:05:07;;;;;;;15.33;10.80;;;18.80;99.90;;;;;;5093712;28;20405;-71
2021/06/15 01:07:41;;;;;;;14.90;10.27;;;18.80;99.90;;;;;;5093714;28;20760;-70
2021/06/15 01:10:24;;;;;;;14.47;9.93;;;18.70;99.90;;;;;;5093586;28;20415;-70
2021/06/15 01:15:36;;;;;;;13.40;10.53;;;18.70;99.90;;;;;;5147500;27;20319;-70
2021/06/15 01:18:20;;;;;;;15.13;11.60;;;18.70;99.90;;;;;;5131340;28;20395;-70
2021/06/15 01:20:52;;;;;;;12.10;10.40;;;18.60;99.90;;;;;;5113718;28;20494;-70
2021/06/15 01:29:13;;;;;;;15.23;11.53;;;18.60;99.90;;;;;;5147320;27;20285;-71
2021/06/15 01:31:45;;;;;;;12.40;9.40;;;18.50;99.90;;;;;;5131237;28;20403;-71
2021/06/15 01:34:20;;;;;;;20.80;11.67;;;18.50;99.90;;;;;;5131429;28;20809;-71
2021/06/15 01:37:01;;;;;;;14.67;10.30;;;18.50;99.90;;;;;;5121949;28;20415;-71
2021/06/15 01:39:31;;;;;;;12.77;10.70;;;18.50;99.90;;;;;;5113622;28;20408;-71
2021/06/15 01:44:44;;;;;;;13.27;11.17;;;18.50;99.90;;;;;;5147388;27;20293;-69
2021/06/15 01:47:12;;;;;;;12.60;11.40;;;18.40;99.90;;;;;;5131364;28;20737;-69
2021/06/15 01:49:45;;;;;;;11.83;10.53;;;18.40;99.90;;;;;;5131911;27;20470;-69
2021/06/15 01:52:13;;;;;;;13.70;11.20;;;18.40;99.90;;;;;;5131353;27;20895;-69
2021/06/15 01:54:41;;;;;;;12.50;10.77;;;18.40;99.90;;;;;;5114875;28;20453;-70
2021/06/15 01:57:09;;;;;;;14.67;12.23;;;18.30;99.90;;;;;;5110953;28;20389;-69
2021/06/15 01:59:38;;;;;;;19.20;11.90;;;18.30;99.90;;;;;;5110475;28;20415;-69
2021/06/15 02:02:04;;;;;;;11.70;10.50;;;18.30;99.90;;;;;;5110531;28;20585;-69
2021/06/15 02:04:34;;;;;;;12.17;10.87;;;18.30;99.90;;;;;;5110371;28;20486;-69
2021/06/15 02:07:02;;;;;;;12.87;11.60;;;18.20;99.90;;;;;;5110440;28;20384;-69
2021/06/15 02:09:31;;;;;;;15.10;12.67;;;18.20;99.90;;;;;;5110384;28;20404;-70
2021/06/15 02:11:57;;;;;;;12.47;11.17;;;18.20;99.90;;;;;;5110561;28;20412;-70
2021/06/15 02:14:26;;;;;;;13.63;12.33;;;18.20;99.90;;;;;;5110486;28;20446;-69
2021/06/15 02:16:56;;;;;;;14.27;10.83;;;18.20;99.90;;;;;;5110159;28;20154;-70
2021/06/15 02:19:24;;;;;;;13.87;11.00;;;18.10;99.90;;;;;;5110187;28;20806;-69
2021/06/15 02:21:56;;;;;;;15.47;12.13;;;18.10;99.90;;;;;;5110138;28;20404;-69
2021/06/15 02:24:26;;;;;;;15.63;12.47;;;18.10;99.90;;;;;;5110365;28;20447;-70
2021/06/15 02:26:52;;;;;;;12.43;11.17;;;18.10;99.90;;;;;;5111625;28;20423;-69
2021/06/15 02:29:18;;;;;;;17.87;11.60;;;18.10;99.90;;;;;;5130648;28;20402;-70
2021/06/15 02:31:52;;;;;;;13.70;11.40;;;18.00;99.90;;;;;;5130439;28;20880;-69
2021/06/15 02:34:19;;;;;;;14.40;12.47;;;18.00;99.90;;;;;;5130320;28;20766;-70
2021/06/15 02:36:46;;;;;;;13.70;10.37;;;18.00;99.90;;;;;;5130544;28;20391;-69
2021/06/15 02:39:16;;;;;;;15.77;11.47;;;17.90;99.90;;;;;;5130760;28;20449;-70
2021/06/15 02:41:43;;;;;;;12.80;11.30;;;17.90;99.90;;;;;;5129983;28;20475;-70
2021/06/15 02:44:15;;;;;;;16.73;12.30;;;17.90;99.90;;;;;;5126037;28;20456;-70
2021/06/15 02:46:43;;;;;;;15.37;11.10;;;17.90;99.90;;;;;;5109667;28;20392;-70
2021/06/15 02:49:14;;;;;;;13.33;12.07;;;17.80;99.90;;;;;;5109571;28;20453;-70
2021/06/15 02:51:47;;;;;;;14.77;13.10;;;17.80;99.90;;;;;;5110396;28;20411;-70
2021/06/15 02:54:20;;;;;;;13.57;12.27;;;17.80;99.90;;;;;;5106656;28;20389;-70
2021/06/15 02:56:49;;;;;;;14.20;12.70;;;17.80;99.90;;;;;;5095843;28;20404;-70
2021/06/15 02:59:15;;;;;;;13.87;12.57;;;17.80;99.90;;;;;;5095734;28;20421;-71
2021/06/15 03:01:46;;;;;;;14.10;12.80;;;17.80;99.90;;;;;;5096807;28;20899;-70
2021/06/15 03:04:11;;;;;;;14.30;12.90;;;17.80;99.90;;;;;;5095655;28;20202;-70
2021/06/15 03:06:37;;;;;;;20.43;15.87;;;17.80;99.90;;;;;;5095705;28;20928;-70
2021/06/15 03:09:03;;;;;;;17.97;14.00;;;17.70;99.90;;;;;;5096102;28;20158;-71
2021/06/15 03:11:32;;;;;;;16.73;14.27;;;17.70;99.90;;;;;;5095953;28;20167;-70
2021/06/15 03:14:28;;;;;;;15.00;13.30;;;17.70;99.90;;;;;;5113083;28;20423;-70
2021/06/15 03:17:04;;;;;;;19.20;13.30;;;17.60;99.90;;;;;;5115958;28;20397;-70
2021/06/15 03:19:56;;;;;;;14.70;13.20;;;17.70;99.90;;;;;;5114973;28;20461;-70
2021/06/15 03:22:26;;;;;;;15.30;13.90;;;17.60;99.90;;;;;;5114828;28;20487;-70
2021/06/15 03:24:57;;;;;;;16.60;14.20;;;17.60;99.90;;;;;;5115826;28;20395;-70
2021/06/15 03:27:38;;;;;;;16.63;14.40;;;17.60;99.90;;;;;;5115642;28;20392;-70
2021/06/15 03:30:13;;;;;;;13.97;12.47;;;17.60;99.90;;;;;;5115701;28;20403;-70
2021/06/15 03:32:46;;;;;;;15.87;13.63;;;17.60;99.90;;;;;;5115774;28;20412;-70
2021/06/15 03:35:14;;;;;;;15.50;13.33;;;17.60;99.90;;;;;;5114929;28;20417;-70
2021/06/15 03:37:48;;;;;;;16.47;14.47;;;17.60;99.90;;;;;;5115680;28;20403;-70
2021/06/15 03:40:15;;;;;;;15.20;13.53;;;17.50;99.90;;;;;;5115857;28;20968;-70
2021/06/15 03:42:41;;;;;;;15.10;13.70;;;17.60;99.90;;;;;;5115132;28;20478;-70
2021/06/15 03:45:09;;;;;;;17.90;15.37;;;17.50;99.90;;;;;;5115444;28;20392;-70
2021/06/15 03:47:37;;;;;;;21.20;15.60;;;17.60;99.90;;;;;;5115349;28;20422;-70
2021/06/15 03:50:04;;;;;;;17.63;15.00;;;17.60;99.90;;;;;;5115876;28;20449;-70
2021/06/15 03:52:39;;;;;;;17.40;15.70;;;17.60;99.90;;;;;;5108669;28;20436;-70
2021/06/15 03:55:07;;;;;;;16.47;14.73;;;17.60;99.90;;;;;;5094951;28;20772;-70
2021/06/15 03:57:41;;;;;;;20.10;18.07;;;17.60;99.90;;;;;;5094529;28;20794;-70
2021/06/15 04:00:08;;;;;;;18.93;16.93;;;17.60;99.90;;;;;;5094604;28;20447;-71
2021/06/15 04:02:38;;;;;;;22.43;16.70;;;17.50;99.90;;;;;;5094542;28;20389;-70
2021/06/15 04:05:05;;;;;;;20.30;16.77;;;17.50;99.90;;;;;;5094615;28;20921;-70
2021/06/15 04:07:32;;;;;;;21.60;16.83;;;17.60;99.90;;;;;;5093883;28;20908;-70
2021/06/15 04:10:00;;;;;;;19.37;17.37;;;17.60;99.90;;;;;;5095266;28;20851;-71
2021/06/15 04:12:26;;;;;;;18.13;16.17;;;17.60;99.90;;;;;;5094326;28;20408;-70
2021/06/15 04:14:53;;;;;;;22.83;19.07;;;17.60;99.90;;;;;;5094543;28;20396;-70
2021/06/15 04:17:22;;;;;;;21.13;18.87;;;17.70;99.90;;;;;;5094379;28;20761;-70
2021/06/15 04:19:53;;;;;;;17.80;16.00;;;17.70;99.90;;;;;;5094431;28;20939;-70
2021/06/15 04:22:20;;;;;;;24.37;17.87;;;17.70;99.90;;;;;;5094525;28;20474;-70
2021/06/15 04:24:48;;;;;;;26.93;20.27;;;17.70;99.90;;;;;;5094098;28;20389;-70
2021/06/15 04:27:20;;;;;;;23.47;21.07;;;17.70;99.90;;;;;;5101443;28;20416;-70
2021/06/15 04:29:46;;;;;;;23.33;20.93;;;17.80;99.90;;;;;;5103443;28;20417;-70
2021/06/15 04:32:14;;;;;;;21.80;19.60;;;17.70;99.90;;;;;;5101645;27;20412;-70
2021/06/15 04:34:42;;;;;;;25.87;20.37;;;17.70;99.90;;;;;;5102182;28;20489;-70
2021/06/15 04:37:10;;;;;;;23.00;20.57;;;17.80;99.90;;;;;;5110758;28;20568;-70
2021/06/15 04:39:42;;;;;;;22.83;19.47;;;17.80;99.90;;;;;;5107216;28;20416;-70
2021/06/15 04:42:13;;;;;;;21.43;19.10;;;17.80;99.90;;;;;;5105530;27;20413;-70
2021/06/15 04:44:42;;;;;;;20.90;18.80;;;17.80;99.90;;;;;;5094415;28;20484;-70
2021/06/15 04:47:15;;;;;;;21.03;18.80;;;17.90;99.90;;;;;;5093811;28;20401;-70
2021/06/15 04:50:03;;;;;;;23.37;18.50;;;17.90;99.90;;;;;;5104445;28;20408;-70
2021/06/15 04:52:31;;;;;;;19.90;17.83;;;17.90;99.90;;;;;;5102619;28;20416;-70
2021/06/15 04:55:00;;;;;;;19.30;16.93;;;17.90;99.90;;;;;;5098759;28;20419;-71
2021/06/15 04:57:28;;;;;;;19.77;17.70;;;17.90;99.90;;;;;;5113216;28;20403;-71
2021/06/15 04:59:57;;;;;;;20.93;17.27;;;17.90;99.90;;;;;;5113103;28;20424;-71
2021/06/15 05:02:25;;;;;;;19.83;17.70;;;18.00;99.90;;;;;;5100277;28;20411;-70
2021/06/15 05:04:52;;;;;;;18.90;17.00;;;17.90;99.90;;;;;;5094027;28;20393;-70
2021/06/15 05:07:19;;;;;;;21.30;17.13;;;17.90;99.90;;;;;;5093746;28;20873;-71
2021/06/15 05:09:55;;;;;;;19.33;16.50;;;18.00;99.90;;;;;;5093444;28;20472;-70
2021/06/15 05:12:23;;;;;;;19.03;17.03;;;18.00;99.90;;;;;;5093413;28;20395;-70
2021/06/15 05:14:49;;;;;;;18.53;16.30;;;18.10;99.90;;;;;;5101333;28;20400;-71
2021/06/15 05:17:20;;;;;;;20.00;16.67;;;18.10;99.90;;;;;;5112900;28;21007;-71
2021/06/15 05:19:46;;;;;;;20.63;17.30;;;18.20;99.90;;;;;;5114073;28;20424;-70
2021/06/15 05:22:33;;;;;;;19.80;17.80;;;18.20;99.90;;;;;;5096531;28;20500;-70
2021/06/15 05:25:01;;;;;;;23.73;18.00;;;18.20;99.90;;;;;;5096942;28;20544;-70
2021/06/15 05:27:29;;;;;;;19.93;17.30;;;18.30;99.90;;;;;;5093112;28;20411;-70
2021/06/15 05:29:55;;;;;;;21.47;17.40;;;18.30;99.90;;;;;;5106500;28;20408;-70
2021/06/15 05:32:21;;;;;;;25.07;17.70;;;18.40;99.90;;;;;;5113598;28;20393;-70
2021/06/15 05:34:47;;;;;;;20.53;18.47;;;18.40;99.90;;;;;;5112817;28;20414;-70
2021/06/15 05:37:13;;;;;;;22.30;16.37;;;18.40;99.90;;;;;;5097483;28;20650;-70
2021/06/15 05:39:40;;;;;;;18.60;16.57;;;18.50;99.90;;;;;;5105400;28;20400;-70
2021/06/15 05:42:07;;;;;;;22.40;17.20;;;18.50;99.90;;;;;;5093434;28;20401;-71
2021/06/15 05:44:33;;;;;;;21.50;19.30;;;18.50;99.90;;;;;;5096915;28;20460;-70
2021/06/15 05:46:59;;;;;;;21.27;17.67;;;18.60;99.90;;;;;;5093447;28;20419;-70
2021/06/15 05:49:25;;;;;;;19.53;17.63;;;18.60;99.90;;;;;;5093244;28;20780;-70
2021/06/15 05:52:01;;;;;;;21.23;18.90;;;18.70;99.90;;;;;;5093644;28;20173;-70
2021/06/15 05:54:27;;;;;;;22.90;18.43;;;18.70;99.90;;;;;;5093090;28;20154;-70
2021/06/15 05:56:53;;;;;;;20.40;18.20;;;18.80;99.90;;;;;;5092897;28;20951;-70
2021/06/15 05:59:19;;;;;;;20.33;16.93;;;18.80;99.90;;;;;;5104835;28;20431;-70
2021/06/15 06:01:44;;;;;;;21.13;17.93;;;18.80;99.90;;;;;;5113294;28;20219;-70
2021/06/15 06:04:12;;;;;;;19.90;17.77;;;18.80;99.90;;;;;;5112820;28;20201;-70
2021/06/15 06:09:23;;;;;;;20.10;18.10;;;18.90;99.90;;;;;;5111441;28;20569;-70
2021/06/15 06:11:49;;;;;;;20.60;17.77;;;18.90;99.90;;;;;;5104683;28;20500;-70
2021/06/15 06:14:15;;;;;;;26.43;18.37;;;19.00;99.90;;;;;;5107946;28;20162;-70
2021/06/15 06:16:42;;;;;;;20.60;18.40;;;19.10;99.90;;;;;;5104778;28;20580;-70
2021/06/15 06:19:09;;;;;;;23.30;19.57;;;19.10;99.90;;;;;;5112871;28;20384;-70
2021/06/15 06:21:35;;;;;;;20.70;18.57;;;19.10;99.90;;;;;;5112875;28;20426;-70
2021/06/15 06:24:03;;;;;;;23.67;20.23;;;19.10;99.90;;;;;;5112871;28;20535;-70
2021/06/15 06:26:29;;;;;;;23.83;17.80;;;19.10;99.90;;;;;;5097634;28;20897;-70
2021/06/15 06:28:54;;;;;;;26.23;19.90;;;19.20;99.90;;;;;;5094388;28;20389;-70
2021/06/15 06:31:21;;;;;;;23.30;18.67;;;19.30;99.90;;;;;;5116359;28;20179;-71
2021/06/15 06:33:47;;;;;;;22.40;19.07;;;19.30;99.90;;;;;;5115808;28;20180;-71
2021/06/15 06:36:13;;;;;;;20.03;17.93;;;19.40;99.90;;;;;;5116676;28;20396;-70
2021/06/15 06:38:38;;;;;;;21.93;19.57;;;19.40;99.90;;;;;;5116359;28;20412;-71
2021/06/15 06:41:04;;;;;;;20.93;18.70;;;19.50;99.90;;;;;;5116057;28;20392;-70
2021/06/15 06:43:30;;;;;;;19.50;17.40;;;19.50;99.90;;;;;;5100659;28;20202;-70
2021/06/15 06:45:56;;;;;;;21.97;17.43;;;19.70;99.90;;;;;;5096439;28;20400;-71
2021/06/15 06:48:22;;;;;;;19.70;17.70;;;19.80;99.90;;;;;;5095880;28;20882;-70
2021/06/15 06:50:47;;;;;;;24.47;17.20;;;19.90;99.90;;;;;;5112522;28;20166;-70
2021/06/15 06:53:13;;;;;;;25.53;18.67;;;20.10;99.90;;;;;;5116270;28;20170;-70
2021/06/15 06:55:39;;;;;;;18.43;16.73;;;20.20;99.90;;;;;;5116293;28;20178;-71
2021/06/15 06:58:06;;;;;;;21.00;16.00;;;20.30;99.90;;;;;;5112879;28;20185;-71
2021/06/15 07:00:32;;;;;;;20.07;17.10;;;20.30;99.90;;;;;;5096712;28;20182;-71
2021/06/15 07:02:57;;;;;;;19.50;17.37;;;20.30;99.90;;;;;;5095579;28;20539;-71
2021/06/15 07:05:23;;;;;;;17.43;15.53;;;20.40;99.90;;;;;;5112347;28;20498;-70
2021/06/15 07:07:51;;;;;;;18.77;14.90;;;20.50;99.90;;;;;;5115108;28;20168;-71
2021/06/15 07:10:17;;;;;;;14.10;12.60;;;20.70;99.90;;;;;;5115651;28;20144;-71
2021/06/15 07:12:43;;;;;;;17.50;13.93;;;20.80;99.90;;;;;;5116328;28;20416;-71
2021/06/15 07:15:09;;;;;;;16.70;14.83;;;21.00;99.90;;;;;;5115823;28;20431;-71
2021/06/15 07:17:35;;;;;;;15.43;12.20;;;21.20;99.90;;;;;;5101993;28;20178;-71
2021/06/15 07:20:00;;;;;;;13.90;12.50;;;21.30;99.90;;;;;;5115085;28;20392;-71
2021/06/15 07:22:26;;;;;;;13.77;12.47;;;21.40;99.90;;;;;;5109492;28;20194;-71
2021/06/15 07:24:51;;;;;;;16.90;14.40;;;21.70;99.90;;;;;;5106999;28;20197;-71
2021/06/15 07:27:17;;;;;;;13.37;11.13;;;22.10;99.90;;;;;;5114210;27;20166;-71
2021/06/15 07:29:42;;;;;;;12.50;10.87;;;23.00;99.90;;;;;;5126339;27;20535;-71
2021/06/15 07:32:08;;;;;;;15.50;10.80;;;23.90;99.90;;;;;;5124919;27;20536;-71
2021/06/15 07:34:33;;;;;;;11.37;10.20;;;24.80;99.90;;;;;;5098869;28;20183;-71
2021/06/15 07:36:59;;;;;;;11.33;9.57;;;25.80;99.90;;;;;;5114260;27;20670;-71
2021/06/15 07:39:25;;;;;;;12.90;9.43;;;26.80;98.50;;;;;;5111288;28;20308;-71
2021/06/15 07:41:50;;;;;;;15.47;10.63;;;27.90;94.70;;;;;;5110644;27;20680;-72
2021/06/15 07:44:16;;;;;;;15.03;9.80;;;29.10;90.50;;;;;;5118018;27;20201;-72
2021/06/15 07:46:42;;;;;;;10.13;8.97;;;29.80;81.90;;;;;;5111939;28;20539;-72
2021/06/15 07:49:08;;;;;;;13.90;8.80;;;30.50;75.10;;;;;;5113813;28;20592;-72
2021/06/15 07:51:35;;;;;;;9.70;8.80;;;30.90;72.40;;;;;;5114827;27;20176;-72
2021/06/15 07:54:01;;;;;;;10.83;9.80;;;31.60;66.10;;;;;;5117995;27;20461;-72
2021/06/15 07:56:26;;;;;;;10.03;8.90;;;32.20;62.20;;;;;;5097430;28;20782;-72
2021/06/15 07:58:52;;;;;;;8.80;7.90;;;32.60;59.40;;;;;;5099830;28;20303;-72
2021/06/15 08:01:18;;;;;;;12.67;8.43;;;33.00;58.20;;;;;;5119202;27;20177;-72
2021/06/15 08:03:43;;;;;;;11.70;10.60;;;33.40;56.00;;;;;;5102882;28;20204;-72
2021/06/15 08:06:09;;;;;;;11.47;9.20;;;33.80;54.10;;;;;;5100386;27;20175;-72
2021/06/15 08:08:35;;;;;;;10.70;9.10;;;33.80;53.90;;;;;;5100204;28;20175;-72
2021/06/15 08:11:02;;;;;;;10.87;7.77;;;34.00;52.60;;;;;;5110726;28;20219;-72
2021/06/15 08:13:29;;;;;;;9.37;8.47;;;34.00;52.40;;;;;;5096514;27;20176;-72
2021/06/15 08:15:55;;;;;;;11.50;8.13;;;34.40;50.90;;;;;;5098357;28;20554;-72
2021/06/15 08:18:20;;;;;;;13.03;7.73;;;35.00;49.00;;;;;;5131870;27;20462;-72
2021/06/15 08:20:50;;;;;;;9.30;8.40;;;35.50;47.00;;;;;;5112130;27;20421;-73
2021/06/15 08:23:16;;;;;;;9.33;7.20;;;36.00;45.50;;;;;;5107720;28;20198;-72
2021/06/15 08:25:43;;;;;;;7.83;7.13;;;36.80;43.50;;;;;;5108050;28;20401;-73
2021/06/15 08:28:09;;;;;;;9.70;7.40;;;37.30;42.60;;;;;;5094309;28;20196;-72
2021/06/15 08:30:36;;;;;;;8.20;6.70;;;37.90;40.50;;;;;;5093901;28;20409;-72
2021/06/15 08:33:01;;;;;;;7.10;6.40;;;38.30;39.70;;;;;;5103570;28;20178;-72
2021/06/15 08:35:27;;;;;;;11.97;6.87;;;39.00;38.20;;;;;;5107298;28;20406;-73
2021/06/15 08:37:53;;;;;;;8.57;6.10;;;39.50;36.70;;;;;;5106592;28;20595;-72
2021/06/15 08:40:19;;;;;;;6.43;5.50;;;40.20;36.00;;;;;;5096549;28;20435;-70
2021/06/15 08:42:44;;;;;;;7.47;6.03;;;40.60;35.10;;;;;;5100883;28;20322;-70
2021/06/15 08:45:13;;;;;;;7.73;6.37;;;41.10;34.10;;;;;;5093773;28;20163;-70
2021/06/15 08:47:41;;;;;;;4.20;3.27;;;41.50;32.80;;;;;;5093629;28;20251;-70
2021/06/15 08:50:09;;;;;;;4.77;4.40;;;41.70;30.50;;;;;;5098191;28;20408;-71
2021/06/15 08:52:36;;;;;;;5.70;5.20;;;41.90;31.20;;;;;;5100765;28;20553;-70
2021/06/15 08:55:02;;;;;;;6.77;5.00;;;41.90;30.70;;;;;;5098531;28;20423;-70
2021/06/15 08:57:28;;;;;;;6.17;4.97;;;41.90;30.40;;;;;;5100393;28;20420;-71
2021/06/15 08:59:56;;;;;;;8.60;5.20;;;42.00;30.30;;;;;;5100035;28;20442;-71
2021/06/15 09:02:21;;;;;;;7.40;5.80;;;42.20;30.30;;;;;;5102990;28;20407;-71
2021/06/15 09:04:47;;;;;;;8.50;5.80;;;42.20;30.10;;;;;;5104754;27;20446;-71
2021/06/15 09:07:13;;;;;;;7.07;5.33;;;42.10;30.20;;;;;;5100285;27;20184;-71
2021/06/15 09:12:17;;;;;;;5.10;4.70;;;41.90;30.20;;;;;;5137149;27;20657;-71
2021/06/15 09:20:17;;;;;;;4.90;4.40;;;41.70;30.80;;;;;;5145131;27;20284;-73
2021/06/15 09:22:42;;;;;;;6.27;4.47;;;40.30;31.80;;;;;;5102739;28;20435;-73
2021/06/15 09:25:13;;;;;;;12.33;6.33;;;39.00;33.10;;;;;;5110148;28;20419;-73
2021/06/15 09:27:40;;;;;;;11.30;5.77;;;38.10;35.20;;;;;;5107489;28;20173;-71
2021/06/15 09:30:08;;;;;;;6.17;5.53;;;37.80;35.80;;;;;;5108742;28;20872;-71
2021/06/15 09:32:38;;;;;;;7.27;6.13;;;37.70;35.90;;;;;;5109878;28;20407;-71
2021/06/15 09:43:12;;;;;;;9.53;6.37;;;36.70;38.00;;;;;;5134484;27;20294;-71
2021/06/15 09:45:47;;;;;;;7.27;6.67;;;36.40;38.40;;;;;;5113949;28;20489;-71
2021/06/15 09:48:25;;;;;;;6.17;4.97;;;36.10;39.30;;;;;;5112275;28;20403;-71
2021/06/15 09:50:59;;;;;;;9.10;6.20;;;35.90;39.70;;;;;;5110280;28;20396;-71
2021/06/15 09:56:05;;;;;;;7.80;6.00;;;35.60;39.60;;;;;;5136730;27;20291;-71
2021/06/15 09:58:52;;;;;;;6.50;4.60;;;35.00;40.80;;;;;;5120685;28;20434;-71
2021/06/15 10:06:50;;;;;;;4.83;4.40;;;34.50;40.10;;;;;;5134357;27;20294;-71
2021/06/15 10:09:33;;;;;;;4.97;3.80;;;32.70;42.60;;;;;;5108396;28;20772;-71
2021/06/15 10:12:03;;;;;;;2.90;2.67;;;32.30;43.10;;;;;;5099488;28;20424;-71
2021/06/15 10:14:29;;;;;;;6.07;3.00;;;32.00;43.20;;;;;;5109584;28;20424;-71
2021/06/15 10:16:57;;;;;;;4.40;3.77;;;32.00;43.10;;;;;;5112976;28;20457;-71
2021/06/15 10:19:23;;;;;;;5.90;3.87;;;31.90;43.90;;;;;;5112856;28;20476;-71
2021/06/15 10:21:50;;;;;;;9.37;6.00;;;31.80;44.40;;;;;;5110706;28;20933;-71
2021/06/15 10:24:21;;;;;;;4.83;4.33;;;31.50;45.30;;;;;;5110413;28;20434;-71
2021/06/15 10:26:47;;;;;;;4.50;3.50;;;31.40;45.90;;;;;;5110648;28;20412;-71
2021/06/15 10:29:13;;;;;;;7.67;3.37;;;31.20;45.30;;;;;;5109157;28;20471;-71
2021/06/15 10:31:41;;;;;;;5.80;3.20;;;30.90;45.80;;;;;;5094519;28;20178;-71
2021/06/15 10:34:07;;;;;;;4.80;3.67;;;30.80;45.50;;;;;;5096678;28;20413;-71
2021/06/15 10:39:40;;;;;;;6.80;4.40;;;30.50;46.20;;;;;;5145108;27;20277;-71
2021/06/15 10:42:10;;;;;;;6.27;4.30;;;29.90;47.50;;;;;;5099920;28;20493;-71
2021/06/15 10:44:36;;;;;;;4.23;3.83;;;29.60;48.10;;;;;;5088662;28;20405;-71
2021/06/15 10:47:11;;;;;;;8.30;5.33;;;29.20;47.70;;;;;;5091443;28;20393;-71
2021/06/15 10:49:58;;;;;;;6.57;5.20;;;28.80;48.80;;;;;;5110332;28;20170;-71
2021/06/15 10:52:25;;;;;;;5.53;3.70;;;28.50;49.90;;;;;;5103262;28;20404;-71
2021/06/15 10:54:50;;;;;;;6.07;4.43;;;28.20;50.80;;;;;;5102668;28;20414;-71
2021/06/15 11:00:11;;;;;;;6.40;4.73;;;28.00;51.40;;;;;;5124310;27;20327;-70
2021/06/15 11:02:37;;;;;;;7.13;5.13;;;28.00;52.30;;;;;;5090786;28;20521;-71
2021/06/15 11:05:43;;;;;;;8.00;5.00;;;28.00;51.70;;;;;;5079999;28;20594;-70
2021/06/15 11:08:19;;;;;;;4.90;4.20;;;28.00;51.60;;;;;;5079203;28;20417;-70
2021/06/15 11:16:40;;;;;;;5.07;4.67;;;27.70;51.70;;;;;;5130444;27;20342;-71
2021/06/15 11:27:07;;;;;;;5.90;5.00;;;27.60;51.80;;;;;;5122179;27;20301;-72
2021/06/15 11:32:21;;;;;;;7.33;5.30;;;27.10;53.70;;;;;;5131840;27;20330;-72
2021/06/15 11:45:33;;;;;;;8.37;3.87;;;26.90;53.10;;;;;;5124211;27;20359;-71
2021/06/15 11:48:22;;;;;;;4.33;3.93;;;26.50;53.40;;;;;;5108429;28;20457;-72
2021/06/15 11:50:51;;;;;;;4.63;3.30;;;26.30;53.50;;;;;;5107374;28;20489;-72
2021/06/15 11:53:19;;;;;;;6.70;4.07;;;26.30;52.90;;;;;;5107282;28;20424;-72
2021/06/15 11:58:26;;;;;;;6.27;4.17;;;26.30;53.20;;;;;;5141568;27;20739;-70
2021/06/15 12:00:54;;;;;;;4.97;4.00;;;26.50;53.70;;;;;;5108612;28;20531;-71
2021/06/15 12:03:22;;;;;;;4.83;4.00;;;26.70;53.70;;;;;;5106955;28;20458;-71
2021/06/15 12:05:50;;;;;;;8.67;4.93;;;26.90;53.60;;;;;;5103069;28;20420;-71
2021/06/15 12:08:17;;;;;;;6.23;4.40;;;27.00;53.60;;;;;;5108361;28;20809;-71
2021/06/15 12:10:44;;;;;;;6.77;4.47;;;27.10;53.70;;;;;;5108585;28;20438;-71
2021/06/15 12:13:12;;;;;;;5.20;4.47;;;27.20;53.30;;;;;;5100866;28;20436;-73
2021/06/15 12:26:36;;;;;;;5.53;4.37;;;27.40;53.10;;;;;;5130344;27;20320;-72
2021/06/15 12:29:11;;;;;;;7.33;4.10;;;27.60;53.30;;;;;;5105064;28;20580;-72
2021/06/15 12:31:38;;;;;;;4.60;3.67;;;27.60;52.90;;;;;;5104982;28;20576;-72
2021/06/15 12:34:09;;;;;;;5.77;3.93;;;27.60;52.70;;;;;;5116466;28;20432;-72
2021/06/15 12:36:39;;;;;;;4.73;3.70;;;27.60;52.40;;;;;;5108854;28;20880;-72
2021/06/15 12:41:49;;;;;;;3.93;3.17;;;27.50;52.40;;;;;;5137430;27;20299;-72
2021/06/15 12:44:15;;;;;;;6.90;4.40;;;27.50;52.10;;;;;;5098211;28;20494;-72
2021/06/15 12:46:42;;;;;;;4.80;3.47;;;27.40;52.30;;;;;;5090244;28;20381;-71
2021/06/15 12:49:23;;;;;;;3.80;3.50;;;27.20;52.40;;;;;;5091605;28;20390;-71
2021/06/15 12:51:52;;;;;;;4.83;3.50;;;27.10;52.90;;;;;;5110094;28;20451;-72
2021/06/15 12:54:37;;;;;;;3.80;3.50;;;27.00;52.40;;;;;;5110594;28;20396;-72
2021/06/15 12:57:06;;;;;;;6.80;3.17;;;26.90;53.00;;;;;;5099166;28;20428;-72
2021/06/15 12:59:34;;;;;;;8.20;4.07;;;26.70;53.00;;;;;;5090013;28;20425;-72
2021/06/15 13:02:10;;;;;;;5.00;3.33;;;26.60;53.10;;;;;;5095214;28;20423;-72
2021/06/15 13:04:47;;;;;;;4.90;3.30;;;26.50;53.40;;;;;;5098571;28;20834;-71
2021/06/15 13:07:13;;;;;;;3.30;2.67;;;26.40;53.90;;;;;;5097233;28;20413;-72
2021/06/15 13:09:39;;;;;;;4.27;2.93;;;26.30;53.90;;;;;;5100190;28;20447;-71
2021/06/15 13:12:09;;;;;;;3.13;2.83;;;26.20;53.60;;;;;;5097184;28;20485;-72
2021/06/15 13:14:38;;;;;;;3.23;2.93;;;26.10;54.00;;;;;;5096019;28;20442;-71
2021/06/15 13:17:18;;;;;;;4.50;2.80;;;25.90;54.60;;;;;;5088036;28;20409;-71
2021/06/15 13:22:22;;;;;;;3.70;3.13;;;25.90;54.70;;;;;;5145725;27;20394;-70
2021/06/15 13:24:49;;;;;;;4.70;2.83;;;25.80;55.70;;;;;;5129842;27;20401;-70
2021/06/15 13:27:32;;;;;;;2.87;2.57;;;25.70;54.60;;;;;;5130217;28;20399;-71
2021/06/15 13:30:05;;;;;;;4.97;3.77;;;25.60;54.50;;;;;;5125839;28;20399;-71
2021/06/15 13:32:31;;;;;;;3.97;3.13;;;25.60;55.00;;;;;;5108884;28;20395;-70
2021/06/15 13:37:35;;;;;;;3.27;2.97;;;25.50;55.60;;;;;;5145296;27;20342;-72
2021/06/15 13:40:02;;;;;;;3.47;2.77;;;25.40;56.30;;;;;;5121127;28;20427;-71
2021/06/15 13:42:29;;;;;;;3.80;3.00;;;25.30;56.40;;;;;;5124587;28;20418;-71
2021/06/15 13:45:07;;;;;;;5.63;3.07;;;25.30;56.70;;;;;;5121794;28;20447;-71
2021/06/15 13:47:34;;;;;;;4.20;2.73;;;25.20;56.70;;;;;;5121019;28;20414;-72
2021/06/15 13:50:00;;;;;;;3.70;3.30;;;25.20;57.20;;;;;;5123418;27;20773;-72
2021/06/15 13:52:26;;;;;;;3.40;3.10;;;25.10;57.50;;;;;;5139848;27;20471;-71
2021/06/15 13:54:51;;;;;;;6.67;3.00;;;25.10;57.40;;;;;;5134005;27;20224;-71
2021/06/15 13:57:18;;;;;;;6.30;2.90;;;25.00;57.40;;;;;;5110263;28;20192;-72
2021/06/15 13:59:43;;;;;;;3.43;3.13;;;25.10;57.60;;;;;;5118323;27;20226;-72
2021/06/15 14:02:09;;;;;;;3.10;2.80;;;25.10;57.60;;;;;;5126129;28;20469;-72
2021/06/15 14:04:34;;;;;;;3.70;3.23;;;25.10;57.90;;;;;;5117897;28;20216;-71
2021/06/15 14:07:00;;;;;;;3.23;2.93;;;25.10;57.60;;;;;;5112748;28;20174;-71
2021/06/15 14:09:25;;;;;;;9.43;2.83;;;25.10;57.70;;;;;;5124573;28;20205;-72
2021/06/15 14:11:51;;;;;;;6.07;2.70;;;25.00;57.50;;;;;;5115491;28;20604;-71
2021/06/15 14:14:17;;;;;;;2.80;2.60;;;25.00;57.80;;;;;;5110183;28;20231;-72
2021/06/15 14:16:42;;;;;;;3.50;2.50;;;25.00;57.60;;;;;;5109539;28;20238;-71